Terminal Aerodrome Forecast
Issued by NWS Wilmington, OH

Current Version | Previous Version | Graphics & Text | Print | Product List | Glossary On
Versions: 1 2 3 4 5 6 7 8 9 10 11 12 13 14 15 16 17 18 19 20 21 22 23 24 25 26 27 28
000
FTUS41 KILN 260900 AAA
TAFCVG
TAF AMD
KCVG 260923Z 2609/2712 01008KT 6SM -SHRA BR SCT012 OVC040
     FM261200 33012G22KT 4SM -SHRA BR OVC013
     FM261800 32011G20KT 5SM BR OVC022
     FM262300 32011G20KT P6SM SCT035 BKN100
     FM270600 32006KT P6SM BKN050=

USA.gov is the U.S. government's official web portal to all federal, state and local government web resources and services.